Aérodrome :







RETROUVEZ-NOUS SUR...

 
LOGIN :

S'inscrire | Disclaimer

   EN    FR    IT 

 









Légende :    VFR   VFR Marginal   IFR   IFR Intensif   IFR Très Intensif
Visi : 
Plafond : 
>= 8 km
>= 3000ft
5 à 8 km
1000 à 3000 ft
1500m à 5 km
500 à 1000 ft
800 à 1500m
200 à 500 ft
< 800m
< 200 ft
Symboles :   Orages  Brouillard  Fortes neiges  Fortes précipitations  Vent > 20 kt






- Altitude de l'aérodrome : 6 ft
- Code IATA : AEY


BIAR - Akureyri

DERNIER METAR :
  • 150100Z 18003KT CAVOK M09/M11 Q0989

METARs EXPIRÉS :
  • 150000Z VRB02KT CAVOK M08/M10 Q0989
  • 142300Z 18004KT 9999 FEW065 M07/M09 Q0990 R01/791095 RMK RWY SANDED

TAF TAF BIAR
Valide du 15 à 00h jusqu'au 16 à 00h UTC


142221Z 1500/1600 34005KT 9999 FEW017 SCT023 BKN038 TXM01/1524Z TNM07/1503Z
PROB40
TEMPO 1500/1520 3000 SHSN BKN010
BECMG 1519/1521 1500 SN VV006



MET'MAP, la Météo Aéronautique d'un coup d'oeil ! - Copyright ORBIFLY Décembre 2007 - Disclaimer

ORBIFLY MET'MAP TEAM :

Programmation & Développement : Alexandra Zaïnal
Sur une idée originale de : Baudouin d'Aumeries
Assistance à la programmation : Marc-Olivier Méhu
Soutien technique & logistique : Manuel Goepfert

Contact : metmap@orbifly.com




SOURCES & CREDITS :

   NOAA